createdAt,value
2023-10-04T00:00:23.073Z,5.25
2023-10-04T00:03:28.616Z,5.05
2023-10-04T00:06:33.319Z,4.65
2023-10-04T00:09:36.313Z,5.15
2023-10-04T00:12:39.136Z,5.70
2023-10-04T00:15:41.221Z,5.43
2023-10-04T00:18:43.532Z,5.70
2023-10-04T00:21:45.658Z,5.30
2023-10-04T00:24:51.374Z,5.25
2023-10-04T00:27:57.777Z,5.03
2023-10-04T00:31:00.024Z,4.78
2023-10-04T00:34:02.050Z,5.25
2023-10-04T00:37:04.096Z,5.35
2023-10-04T00:40:16.932Z,4.60
2023-10-04T00:43:22.014Z,5.53
2023-10-04T00:46:25.025Z,5.15
2023-10-04T00:49:30.524Z,4.65
2023-10-04T00:52:32.585Z,5.28
2023-10-04T00:55:36.055Z,4.88
2023-10-04T00:58:38.657Z,5.13
2023-10-04T01:01:43.008Z,5.00
2023-10-04T01:04:45.291Z,4.85
2023-10-04T01:07:49.929Z,4.90
2023-10-04T01:10:54.215Z,5.00
2023-10-04T01:14:08.044Z,4.55
2023-10-04T01:17:14.264Z,4.45
2023-10-04T01:20:17.669Z,4.13
2023-10-04T01:23:19.981Z,4.43
2023-10-04T01:26:27.600Z,4.60
2023-10-04T01:29:30.894Z,4.35
2023-10-04T01:32:32.900Z,4.03
2023-10-04T01:35:34.851Z,4.25
2023-10-04T01:38:36.808Z,4.30
2023-10-04T01:41:41.542Z,4.03
2023-10-04T01:44:43.413Z,4.07
2023-10-04T01:47:46.640Z,4.28
2023-10-04T01:50:49.832Z,3.78
2023-10-04T01:53:53.926Z,4.30
2023-10-04T01:56:57.264Z,4.38
2023-10-04T01:59:59.149Z,3.88
2023-10-04T02:03:02.601Z,4.45
2023-10-04T02:06:06.317Z,4.20
2023-10-04T02:09:12.370Z,4.32
2023-10-04T02:12:14.349Z,4.50
2023-10-04T02:15:16.585Z,4.70
2023-10-04T02:18:20.773Z,4.40
2023-10-04T02:21:24.118Z,4.30
2023-10-04T02:24:26.129Z,4.75
2023-10-04T02:27:28.774Z,4.20
2023-10-04T02:30:30.941Z,4.40
2023-10-04T02:33:34.667Z,5.18
2023-10-04T02:36:38.532Z,5.25
2023-10-04T02:39:40.644Z,4.80
2023-10-04T02:42:46.139Z,5.07
2023-10-04T02:45:53.448Z,5.07
2023-10-04T02:48:57.536Z,4.78
2023-10-04T02:51:59.734Z,4.47
2023-10-04T02:55:01.695Z,4.80
2023-10-04T02:58:07.290Z,5.20
2023-10-04T03:01:10.399Z,4.57
2023-10-04T03:04:15.442Z,5.40
2023-10-04T03:10:26.288Z,4.65
2023-10-04T03:13:28.959Z,4.38
2023-10-04T03:16:31.137Z,4.72
2023-10-04T03:19:33.154Z,4.47
2023-10-04T03:22:35.177Z,4.88
2023-10-04T03:25:37.926Z,4.35
2023-10-04T03:28:40.018Z,5.13
2023-10-04T03:31:42.106Z,4.95
2023-10-04T03:34:45.348Z,4.25
2023-10-04T03:37:59.982Z,4.40
2023-10-04T03:41:05.454Z,4.28
2023-10-04T03:44:07.499Z,4.63
2023-10-04T03:47:10.356Z,4.47
2023-10-04T03:50:13.426Z,4.35
2023-10-04T03:53:17.372Z,4.25
2023-10-04T03:56:19.625Z,4.20
2023-10-04T03:59:25.518Z,3.83
2023-10-04T04:02:29.016Z,4.07
2023-10-04T04:05:32.351Z,3.78
2023-10-04T04:08:34.730Z,3.58
2023-10-04T04:11:37.784Z,4.05
2023-10-04T04:14:39.618Z,4.03
2023-10-04T04:17:42.829Z,3.53
2023-10-04T04:20:44.648Z,3.83
2023-10-04T04:23:47.472Z,3.45
2023-10-04T04:26:49.412Z,3.17
2023-10-04T04:29:54.271Z,3.50
2023-10-04T04:32:59.671Z,3.65
2023-10-04T04:36:10.889Z,3.60
2023-10-04T04:39:17.955Z,3.10
2023-10-04T04:42:30.997Z,3.67
2023-10-04T04:45:34.447Z,3.58
2023-10-04T04:48:40.017Z,3.17
2023-10-04T04:51:42.891Z,4.13
2023-10-04T04:54:44.920Z,3.13
2023-10-04T04:57:51.396Z,3.30
2023-10-04T05:01:12.161Z,3.90
2023-10-04T05:04:14.873Z,3.47
2023-10-04T05:07:16.858Z,3.70
2023-10-04T05:10:19.776Z,3.83
2023-10-04T05:13:24.845Z,2.90
2023-10-04T05:16:26.917Z,3.08
2023-10-04T05:19:30.558Z,3.28
2023-10-04T05:22:32.482Z,3.53
2023-10-04T05:25:34.488Z,4.10
2023-10-04T05:28:36.437Z,5.40
2023-10-04T05:31:39.276Z,7.70
2023-10-04T05:34:41.265Z,7.38
2023-10-04T05:37:43.264Z,4.75
2023-10-04T05:40:49.673Z,4.32
2023-10-04T05:43:51.540Z,4.00
2023-10-04T05:46:53.456Z,3.80
2023-10-04T05:49:55.332Z,4.15
2023-10-04T05:52:59.938Z,3.72
2023-10-04T05:56:02.027Z,3.92
2023-10-04T05:59:04.323Z,3.78
2023-10-04T06:02:06.257Z,3.80
2023-10-04T06:05:09.414Z,3.33
2023-10-04T06:08:16.894Z,4.25
2023-10-04T06:11:18.805Z,3.97
2023-10-04T06:14:28.236Z,3.30
2023-10-04T06:17:30.698Z,3.60
2023-10-04T06:20:37.485Z,3.85
2023-10-04T06:23:39.458Z,3.65
2023-10-04T06:26:42.498Z,3.28
2023-10-04T06:29:46.172Z,4.10
2023-10-04T06:32:53.226Z,4.05
2023-10-04T06:35:55.338Z,3.50
2023-10-04T06:38:57.513Z,3.42
2023-10-04T06:41:59.418Z,3.38
2023-10-04T06:45:01.504Z,3.75
2023-10-04T06:48:05.565Z,3.78
2023-10-04T06:51:07.707Z,3.63
2023-10-04T06:54:10.532Z,3.50
2023-10-04T06:57:12.523Z,3.50
2023-10-04T07:00:20.189Z,3.53
2023-10-04T07:03:23.254Z,3.05
2023-10-04T07:06:25.573Z,3.22
2023-10-04T07:09:29.030Z,3.30
2023-10-04T07:12:32.604Z,3.17
2023-10-04T07:15:41.015Z,3.45
2023-10-04T07:18:43.379Z,3.53
2023-10-04T07:21:45.372Z,4.35
2023-10-04T07:24:48.158Z,3.42
2023-10-04T07:27:50.117Z,3.35
2023-10-04T07:30:52.117Z,3.45
2023-10-04T07:33:54.017Z,3.15
2023-10-04T07:36:56.336Z,2.67
2023-10-04T07:39:58.817Z,2.78
2023-10-04T07:43:03.065Z,3.00
2023-10-04T07:46:05.559Z,3.00
2023-10-04T07:49:07.542Z,2.75
2023-10-04T07:52:09.483Z,2.90
2023-10-04T07:55:23.749Z,2.58
2023-10-04T07:58:26.431Z,2.47
2023-10-04T08:01:29.889Z,2.50
2023-10-04T08:04:34.964Z,3.45
2023-10-04T08:07:38.176Z,4.10
2023-10-04T08:10:41.358Z,2.92
2023-10-04T08:13:43.275Z,2.42
2023-10-04T08:16:45.234Z,3.08
2023-10-04T08:19:47.316Z,2.63
2023-10-04T08:22:49.512Z,2.60
2023-10-04T08:25:51.468Z,2.33
2023-10-04T08:28:55.124Z,2.60
2023-10-04T08:31:57.404Z,2.50
2023-10-04T08:35:01.215Z,2.70
2023-10-04T08:38:05.558Z,2.78
2023-10-04T08:44:13.512Z,2.85
2023-10-04T08:47:17.518Z,2.42
2023-10-04T08:50:52.908Z,2.80
2023-10-04T08:54:10.408Z,2.42
2023-10-04T08:57:16.022Z,2.75
2023-10-04T09:00:30.639Z,3.38
2023-10-04T09:03:34.994Z,2.88
2023-10-04T09:06:38.447Z,2.90
2023-10-04T09:09:43.586Z,3.10
2023-10-04T09:12:59.018Z,2.85
2023-10-04T09:16:18.663Z,2.72
2023-10-04T09:19:20.721Z,2.75
2023-10-04T09:22:32.633Z,2.92
2023-10-04T09:25:38.546Z,2.92
2023-10-04T09:28:42.076Z,2.80
2023-10-04T09:31:56.697Z,2.25
2023-10-04T09:34:59.248Z,2.85
2023-10-04T09:38:18.140Z,2.60
2023-10-04T09:41:20.896Z,2.92
2023-10-04T09:44:37.303Z,3.97
2023-10-04T09:47:39.687Z,4.28
2023-10-04T09:50:41.760Z,2.70
2023-10-04T09:53:44.281Z,2.15
2023-10-04T09:56:50.502Z,2.50
2023-10-04T09:59:54.857Z,2.60
2023-10-04T10:02:59.419Z,2.33
2023-10-04T10:06:03.046Z,2.80
2023-10-04T10:09:10.138Z,2.58
2023-10-04T10:12:12.525Z,2.13
2023-10-04T10:15:14.810Z,2.20
2023-10-04T10:18:18.612Z,2.63
2023-10-04T10:21:20.526Z,2.72
2023-10-04T10:24:22.941Z,2.67
2023-10-04T10:27:26.513Z,2.20
2023-10-04T10:30:32.166Z,2.08
2023-10-04T10:33:34.223Z,2.20
2023-10-04T10:36:37.138Z,2.30
2023-10-04T10:39:47.984Z,1.98
2023-10-04T10:43:11.830Z,2.20
2023-10-04T10:46:33.997Z,2.05
2023-10-04T10:49:42.136Z,2.25
2023-10-04T10:52:44.373Z,2.13
2023-10-04T10:55:46.346Z,2.33
2023-10-04T10:58:49.802Z,2.10
2023-10-04T11:01:51.759Z,2.25
2023-10-04T11:04:55.182Z,2.25
2023-10-04T11:07:58.262Z,2.75
2023-10-04T11:11:01.534Z,2.15
2023-10-04T11:14:07.820Z,2.42
2023-10-04T11:17:11.991Z,2.58
2023-10-04T11:20:18.886Z,2.20
2023-10-04T11:23:21.232Z,2.20
2023-10-04T11:26:23.336Z,2.40
2023-10-04T11:29:31.226Z,2.30
2023-10-04T11:32:33.255Z,2.80
2023-10-04T11:35:35.888Z,2.45
2023-10-04T11:38:37.830Z,2.60
2023-10-04T11:41:40.888Z,2.80
2023-10-04T11:44:43.239Z,2.70
2023-10-04T11:47:47.048Z,2.70
2023-10-04T11:50:51.236Z,2.65
2023-10-04T11:53:56.273Z,2.42
2023-10-04T11:56:58.370Z,2.55
2023-10-04T12:00:00.861Z,2.50
2023-10-04T12:03:03.497Z,2.33
2023-10-04T12:06:08.384Z,2.47
2023-10-04T12:09:10.800Z,2.22
2023-10-04T12:12:18.465Z,2.08
2023-10-04T12:15:22.716Z,2.03
2023-10-04T12:18:24.654Z,2.50
2023-10-04T12:21:26.623Z,2.25
2023-10-04T12:24:31.619Z,2.40
2023-10-04T12:27:33.581Z,2.65
2023-10-04T12:30:38.763Z,2.67
2023-10-04T12:33:40.894Z,2.78
2023-10-04T12:36:55.065Z,3.03
2023-10-04T12:39:58.001Z,2.33
2023-10-04T12:42:59.883Z,2.33
2023-10-04T12:46:02.597Z,2.20
2023-10-04T12:49:04.724Z,2.20
2023-10-04T12:52:08.325Z,2.00
2023-10-04T12:55:12.545Z,2.10
2023-10-04T12:58:15.333Z,2.10
2023-10-04T13:01:19.433Z,2.20
2023-10-04T13:04:27.365Z,1.90
2023-10-04T13:07:29.459Z,1.90
2023-10-04T13:10:33.768Z,2.00
2023-10-04T13:13:35.851Z,2.30
2023-10-04T13:16:37.772Z,2.15
2023-10-04T13:19:39.891Z,2.25
2023-10-04T13:22:44.540Z,2.15
2023-10-04T13:25:46.901Z,2.00
2023-10-04T13:28:48.829Z,2.22
2023-10-04T13:31:50.821Z,2.15
2023-10-04T13:34:52.849Z,1.90
2023-10-04T13:37:54.811Z,1.95
2023-10-04T13:40:56.838Z,1.77
2023-10-04T13:43:59.210Z,1.95
2023-10-04T13:47:01.845Z,2.00
2023-10-04T13:50:04.338Z,3.63
2023-10-04T13:53:09.679Z,1.90
2023-10-04T13:56:11.550Z,2.03
2023-10-04T13:59:13.578Z,2.20
2023-10-04T14:02:18.511Z,2.70
2023-10-04T14:05:20.556Z,4.45
2023-10-04T14:08:22.522Z,3.20
2023-10-04T14:11:24.383Z,2.80
2023-10-04T14:14:28.956Z,2.95
2023-10-04T14:17:30.745Z,2.15
2023-10-04T14:20:33.220Z,1.95
2023-10-04T14:23:35.222Z,1.90
2023-10-04T14:26:39.628Z,2.38
2023-10-04T14:29:42.541Z,2.25
2023-10-04T14:32:48.546Z,1.90
2023-10-04T14:35:52.637Z,2.30
2023-10-04T14:38:54.630Z,2.83
2023-10-04T14:41:56.459Z,3.55
2023-10-04T14:44:59.720Z,3.67
2023-10-04T14:48:01.728Z,5.18
2023-10-04T14:54:08.752Z,5.95
2023-10-04T14:57:10.554Z,4.10
2023-10-04T15:00:14.113Z,4.85
2023-10-04T15:03:15.991Z,3.38
2023-10-04T15:06:18.007Z,2.90
2023-10-04T15:09:20.170Z,2.72
2023-10-04T15:12:22.175Z,5.70
2023-10-04T15:15:25.869Z,5.25
2023-10-04T15:18:27.822Z,3.78
2023-10-04T15:21:30.424Z,3.22
2023-10-04T15:24:32.359Z,2.85
2023-10-04T15:27:34.952Z,2.35
2023-10-04T15:30:38.323Z,6.72
2023-10-04T15:33:40.615Z,5.68
2023-10-04T15:36:42.768Z,3.75
2023-10-04T15:39:44.816Z,5.05
2023-10-04T15:42:47.431Z,3.28
2023-10-04T15:45:50.463Z,4.00
2023-10-04T15:48:52.607Z,2.83
2023-10-04T15:51:54.635Z,2.20
2023-10-04T15:54:57.554Z,3.47
2023-10-04T15:57:59.455Z,3.10
2023-10-04T16:01:02.155Z,3.58
2023-10-04T16:04:04.482Z,4.05
2023-10-04T16:07:06.920Z,19.35
2023-10-04T16:10:09.204Z,13.50
2023-10-04T16:13:12.236Z,19.88
2023-10-04T16:16:14.261Z,20.30
2023-10-04T16:19:16.384Z,10.35
2023-10-04T16:22:18.564Z,8.30
2023-10-04T16:25:28.324Z,7.53
2023-10-04T16:28:31.060Z,4.03
2023-10-04T16:31:33.795Z,5.70
2023-10-04T16:34:39.306Z,6.03
2023-10-04T16:37:42.825Z,5.72
2023-10-04T16:40:44.736Z,6.15
2023-10-04T16:43:47.292Z,5.93
2023-10-04T16:46:49.150Z,4.20
2023-10-04T16:49:51.026Z,3.28
2023-10-04T16:52:52.873Z,1.90
2023-10-04T16:55:55.209Z,1.70
2023-10-04T16:58:58.034Z,2.35
2023-10-04T17:01:59.947Z,1.90
2023-10-04T17:05:10.472Z,1.88
2023-10-04T17:08:12.595Z,1.60
2023-10-04T17:14:38.032Z,3.72
2023-10-04T17:17:44.645Z,2.85
2023-10-04T17:20:46.886Z,2.33
2023-10-04T17:23:51.498Z,2.17
2023-10-04T17:26:53.817Z,4.88
2023-10-04T17:29:55.904Z,7.20
2023-10-04T17:32:58.103Z,10.02
2023-10-04T17:36:00.046Z,28.40
2023-10-04T17:39:02.306Z,22.83
2023-10-04T17:42:05.178Z,8.27
2023-10-04T17:45:11.912Z,5.97
2023-10-04T17:48:14.326Z,4.85
2023-10-04T17:51:16.569Z,5.75
2023-10-04T17:54:21.451Z,5.18
2023-10-04T17:57:24.040Z,5.78
2023-10-04T18:00:26.656Z,10.32
2023-10-04T18:03:28.933Z,14.25
2023-10-04T18:06:30.981Z,22.67
2023-10-04T18:09:33.400Z,21.92
2023-10-04T18:12:38.400Z,17.77
2023-10-04T18:15:43.859Z,23.45
2023-10-04T18:18:46.433Z,13.75
2023-10-04T18:21:50.239Z,13.35
2023-10-04T18:24:54.338Z,14.70
2023-10-04T18:27:56.329Z,12.75
2023-10-04T18:30:58.887Z,14.38
2023-10-04T18:34:03.204Z,12.82
2023-10-04T18:37:05.880Z,11.57
2023-10-04T18:40:10.604Z,10.23
2023-10-04T18:43:13.793Z,11.07
2023-10-04T18:46:16.787Z,13.57
2023-10-04T18:49:23.472Z,11.75
2023-10-04T18:52:26.160Z,9.27
2023-10-04T18:55:29.813Z,9.18
2023-10-04T18:58:32.184Z,9.23
2023-10-04T19:01:36.382Z,10.63
2023-10-04T19:04:51.587Z,10.30
2023-10-04T19:08:03.052Z,11.27
2023-10-04T19:11:08.942Z,9.88
2023-10-04T19:14:11.465Z,10.20
2023-10-04T19:17:13.782Z,10.60
2023-10-04T19:20:17.045Z,10.82
2023-10-04T19:23:26.161Z,11.38
2023-10-04T19:26:28.986Z,16.40
2023-10-04T19:29:33.807Z,22.58
2023-10-04T19:32:38.247Z,17.55
2023-10-04T19:35:42.008Z,15.55
2023-10-04T19:38:44.181Z,16.67
2023-10-04T19:41:46.633Z,10.63
2023-10-04T19:44:50.485Z,8.88
2023-10-04T19:47:53.474Z,10.20
2023-10-04T19:50:57.147Z,9.48
2023-10-04T19:53:59.445Z,9.05
2023-10-04T19:57:01.425Z,9.98
2023-10-04T20:00:06.730Z,8.98
2023-10-04T20:03:09.551Z,7.22
2023-10-04T20:06:11.588Z,7.65
2023-10-04T20:09:15.036Z,8.55
2023-10-04T20:12:17.398Z,6.75
2023-10-04T20:15:19.993Z,7.32
2023-10-04T20:18:22.191Z,7.38
2023-10-04T20:21:24.594Z,5.68
2023-10-04T20:24:26.554Z,6.00
2023-10-04T20:27:32.599Z,5.82
2023-10-04T20:30:34.881Z,6.85
2023-10-04T20:33:37.787Z,8.18
2023-10-04T20:36:41.332Z,7.00
2023-10-04T20:39:43.276Z,6.35
2023-10-04T20:42:47.563Z,6.63
2023-10-04T20:45:49.567Z,6.03
2023-10-04T20:48:51.726Z,6.10
2023-10-04T20:51:54.215Z,5.63
2023-10-04T20:54:56.685Z,5.93
2023-10-04T20:57:58.928Z,5.07
2023-10-04T21:01:03.121Z,5.25
2023-10-04T21:04:06.228Z,4.50
2023-10-04T21:07:09.259Z,4.25
2023-10-04T21:10:12.842Z,4.22
2023-10-04T21:13:15.075Z,4.78
2023-10-04T21:16:17.530Z,4.43
2023-10-04T21:19:19.777Z,3.95
2023-10-04T21:22:23.402Z,5.18
2023-10-04T21:25:27.489Z,5.15
2023-10-04T21:28:30.904Z,4.25
2023-10-04T21:31:33.623Z,4.85
2023-10-04T21:34:35.761Z,4.13
2023-10-04T21:37:40.450Z,4.35
2023-10-04T21:40:45.612Z,3.80
2023-10-04T21:44:01.406Z,4.45
2023-10-04T21:47:08.936Z,3.70
2023-10-04T21:50:13.746Z,3.78
2023-10-04T21:53:16.102Z,4.40
2023-10-04T21:56:18.031Z,3.90
2023-10-04T21:59:19.967Z,4.10
2023-10-04T22:02:21.917Z,3.47
2023-10-04T22:05:24.177Z,2.95
2023-10-04T22:08:26.716Z,2.88
2023-10-04T22:11:28.682Z,2.78
2023-10-04T22:14:32.606Z,2.85
2023-10-04T22:17:34.835Z,2.63
2023-10-04T22:20:36.666Z,2.83
2023-10-04T22:23:38.764Z,2.45
2023-10-04T22:26:41.841Z,2.50
2023-10-04T22:29:55.947Z,2.60
2023-10-04T22:32:58.791Z,2.60
2023-10-04T22:36:00.655Z,2.22
2023-10-04T22:39:08.483Z,2.38
2023-10-04T22:42:11.601Z,2.80
2023-10-04T22:45:15.625Z,2.47
2023-10-04T22:48:17.536Z,2.53
2023-10-04T22:51:19.528Z,2.50
2023-10-04T22:54:21.536Z,2.40
2023-10-04T22:57:24.363Z,2.50
2023-10-04T23:00:26.874Z,2.50
2023-10-04T23:03:42.247Z,3.00
2023-10-04T23:06:46.590Z,2.17
2023-10-04T23:09:48.594Z,2.75
2023-10-04T23:12:51.912Z,2.75
2023-10-04T23:15:55.969Z,2.53
2023-10-04T23:19:11.926Z,2.65
2023-10-04T23:22:17.160Z,2.38
2023-10-04T23:25:21.697Z,2.33
2023-10-04T23:28:24.567Z,2.58
2023-10-04T23:31:26.695Z,2.30
2023-10-04T23:34:33.790Z,2.42
2023-10-04T23:37:35.901Z,2.30
2023-10-04T23:40:46.732Z,2.47
2023-10-04T23:43:48.652Z,2.50
2023-10-04T23:46:51.382Z,2.70
2023-10-04T23:49:56.468Z,2.28
2023-10-04T23:52:58.899Z,3.10
2023-10-04T23:56:07.539Z,2.67
2023-10-04T23:59:09.593Z,2.50
